sensor_id;sensor_type;location;lat;lon;timestamp;temperature;humidity
20315;DHT22;10315;50.958;13.080;2022-10-16T00:02:41;14.50;99.90
20315;DHT22;10315;50.958;13.080;2022-10-16T00:12:42;14.50;99.90
20315;DHT22;10315;50.958;13.080;2022-10-16T00:22:45;14.30;99.90
20315;DHT22;10315;50.958;13.080;2022-10-16T00:32:47;14.20;99.90
20315;DHT22;10315;50.958;13.080;2022-10-16T00:42:50;14.20;99.90
20315;DHT22;10315;50.958;13.080;2022-10-16T00:52:52;14.50;99.90
20315;DHT22;10315;50.958;13.080;2022-10-16T01:02:58;14.70;99.90
20315;DHT22;10315;50.958;13.080;2022-10-16T01:13:05;14.80;99.90
20315;DHT22;10315;50.958;13.080;2022-10-16T01:23:17;14.80;99.90
20315;DHT22;10315;50.958;13.080;2022-10-16T01:33:28;14.80;99.90
20315;DHT22;10315;50.958;13.080;2022-10-16T01:43:34;14.90;99.90
20315;DHT22;10315;50.958;13.080;2022-10-16T01:53:39;14.90;99.90
20315;DHT22;10315;50.958;13.080;2022-10-16T02:03:42;14.80;99.90
20315;DHT22;10315;50.958;13.080;2022-10-16T02:13:50;14.80;99.90
20315;DHT22;10315;50.958;13.080;2022-10-16T02:23:57;14.60;99.90
20315;DHT22;10315;50.958;13.080;2022-10-16T02:34:04;14.40;99.90
20315;DHT22;10315;50.958;13.080;2022-10-16T02:44:07;14.60;99.90
20315;DHT22;10315;50.958;13.080;2022-10-16T02:54:10;14.60;99.90
20315;DHT22;10315;50.958;13.080;2022-10-16T03:04:13;14.40;99.90
20315;DHT22;10315;50.958;13.080;2022-10-16T03:14:16;14.20;99.90
20315;DHT22;10315;50.958;13.080;2022-10-16T03:24:18;14.40;99.90
20315;DHT22;10315;50.958;13.080;2022-10-16T03:34:21;14.30;99.90
20315;DHT22;10315;50.958;13.080;2022-10-16T03:44:23;14.40;99.90
20315;DHT22;10315;50.958;13.080;2022-10-16T03:54:26;14.40;99.90
20315;DHT22;10315;50.958;13.080;2022-10-16T04:04:28;14.40;99.90
20315;DHT22;10315;50.958;13.080;2022-10-16T04:14:31;14.50;99.90
20315;DHT22;10315;50.958;13.080;2022-10-16T04:24:32;14.50;99.90
20315;DHT22;10315;50.958;13.080;2022-10-16T04:34:35;14.30;99.90
20315;DHT22;10315;50.958;13.080;2022-10-16T04:44:38;14.10;99.90
20315;DHT22;10315;50.958;13.080;2022-10-16T04:54:41;14.00;99.90
20315;DHT22;10315;50.958;13.080;2022-10-16T05:04:45;13.80;99.90
20315;DHT22;10315;50.958;13.080;2022-10-16T05:14:48;13.90;99.90
20315;DHT22;10315;50.958;13.080;2022-10-16T05:24:50;14.10;99.90
20315;DHT22;10315;50.958;13.080;2022-10-16T05:34:53;14.00;99.90
20315;DHT22;10315;50.958;13.080;2022-10-16T05:44:54;14.20;99.90
20315;DHT22;10315;50.958;13.080;2022-10-16T05:54:57;14.30;99.90
20315;DHT22;10315;50.958;13.080;2022-10-16T06:04:59;14.40;99.90
20315;DHT22;10315;50.958;13.080;2022-10-16T06:15:03;14.50;99.90
20315;DHT22;10315;50.958;13.080;2022-10-16T06:25:05;14.80;99.90
20315;DHT22;10315;50.958;13.080;2022-10-16T06:35:08;15.10;99.90
20315;DHT22;10315;50.958;13.080;2022-10-16T06:45:10;15.20;99.90
20315;DHT22;10315;50.958;13.080;2022-10-16T06:55:14;15.40;99.90
20315;DHT22;10315;50.958;13.080;2022-10-16T07:05:17;15.70;99.90
20315;DHT22;10315;50.958;13.080;2022-10-16T07:15:20;16.90;99.90
20315;DHT22;10315;50.958;13.080;2022-10-16T07:25:22;16.50;99.90
20315;DHT22;10315;50.958;13.080;2022-10-16T07:35:25;16.10;99.90
20315;DHT22;10315;50.958;13.080;2022-10-16T07:45:26;16.20;99.90
20315;DHT22;10315;50.958;13.080;2022-10-16T07:55:29;17.40;99.90
20315;DHT22;10315;50.958;13.080;2022-10-16T08:05:32;17.00;99.90
20315;DHT22;10315;50.958;13.080;2022-10-16T08:15:36;17.00;99.90
20315;DHT22;10315;50.958;13.080;2022-10-16T08:25:38;17.40;99.90
20315;DHT22;10315;50.958;13.080;2022-10-16T08:35:41;18.00;99.90
20315;DHT22;10315;50.958;13.080;2022-10-16T08:45:54;19.90;99.90
20315;DHT22;10315;50.958;13.080;2022-10-16T08:56:04;20.20;99.90
20315;DHT22;10315;50.958;13.080;2022-10-16T09:06:32;21.00;99.90
20315;DHT22;10315;50.958;13.080;2022-10-16T09:16:42;20.90;99.90
20315;DHT22;10315;50.958;13.080;2022-10-16T09:26:46;20.50;99.90
20315;DHT22;10315;50.958;13.080;2022-10-16T09:36:49;20.20;99.90
20315;DHT22;10315;50.958;13.080;2022-10-16T09:47:01;20.80;99.90
20315;DHT22;10315;50.958;13.080;2022-10-16T09:57:06;21.00;99.90
20315;DHT22;10315;50.958;13.080;2022-10-16T10:07:17;21.20;99.90
20315;DHT22;10315;50.958;13.080;2022-10-16T10:17:22;20.70;99.90
20315;DHT22;10315;50.958;13.080;2022-10-16T10:27:32;20.00;99.90
20315;DHT22;10315;50.958;13.080;2022-10-16T10:37:48;20.50;99.90
20315;DHT22;10315;50.958;13.080;2022-10-16T10:48:03;20.30;99.90
20315;DHT22;10315;50.958;13.080;2022-10-16T10:58:22;20.40;99.90
20315;DHT22;10315;50.958;13.080;2022-10-16T11:08:32;20.60;99.90
20315;DHT22;10315;50.958;13.080;2022-10-16T11:18:45;20.70;99.90
20315;DHT22;10315;50.958;13.080;2022-10-16T11:28:51;20.80;99.90
20315;DHT22;10315;50.958;13.080;2022-10-16T11:39:02;20.60;99.90
20315;DHT22;10315;50.958;13.080;2022-10-16T11:49:12;21.00;99.90
20315;DHT22;10315;50.958;13.080;2022-10-16T11:59:23;21.10;99.90
20315;DHT22;10315;50.958;13.080;2022-10-16T12:09:38;21.30;99.90
20315;DHT22;10315;50.958;13.080;2022-10-16T12:19:44;22.00;99.90
20315;DHT22;10315;50.958;13.080;2022-10-16T12:30:00;22.70;99.90
20315;DHT22;10315;50.958;13.080;2022-10-16T12:40:14;22.80;99.90
20315;DHT22;10315;50.958;13.080;2022-10-16T12:50:31;21.80;99.90
20315;DHT22;10315;50.958;13.080;2022-10-16T13:00:42;21.60;99.90
20315;DHT22;10315;50.958;13.080;2022-10-16T13:10:55;20.80;99.90
20315;DHT22;10315;50.958;13.080;2022-10-16T13:21:09;20.20;99.90
20315;DHT22;10315;50.958;13.080;2022-10-16T13:31:19;20.70;99.90
20315;DHT22;10315;50.958;13.080;2022-10-16T13:41:22;20.50;99.90
20315;DHT22;10315;50.958;13.080;2022-10-16T13:51:25;20.50;99.90
20315;DHT22;10315;50.958;13.080;2022-10-16T14:01:30;20.00;99.90
20315;DHT22;10315;50.958;13.080;2022-10-16T14:11:33;19.90;99.90
20315;DHT22;10315;50.958;13.080;2022-10-16T14:21:37;19.80;99.90
20315;DHT22;10315;50.958;13.080;2022-10-16T14:31:41;20.00;99.90
20315;DHT22;10315;50.958;13.080;2022-10-16T14:41:47;19.80;99.90
20315;DHT22;10315;50.958;13.080;2022-10-16T14:51:49;20.30;99.90
20315;DHT22;10315;50.958;13.080;2022-10-16T15:01:54;20.50;99.90
20315;DHT22;10315;50.958;13.080;2022-10-16T15:11:55;20.20;99.90
20315;DHT22;10315;50.958;13.080;2022-10-16T15:21:59;19.80;99.90
20315;DHT22;10315;50.958;13.080;2022-10-16T15:32:00;19.20;99.90
20315;DHT22;10315;50.958;13.080;2022-10-16T15:42:03;18.90;99.90
20315;DHT22;10315;50.958;13.080;2022-10-16T15:52:06;18.70;99.90
20315;DHT22;10315;50.958;13.080;2022-10-16T16:02:09;18.30;99.90
20315;DHT22;10315;50.958;13.080;2022-10-16T16:12:11;17.80;99.90
20315;DHT22;10315;50.958;13.080;2022-10-16T16:22:14;17.40;99.90
20315;DHT22;10315;50.958;13.080;2022-10-16T16:32:16;17.40;99.90
20315;DHT22;10315;50.958;13.080;2022-10-16T16:42:19;17.00;99.90
20315;DHT22;10315;50.958;13.080;2022-10-16T16:52:20;16.80;99.90
20315;DHT22;10315;50.958;13.080;2022-10-16T17:02:24;16.00;99.90
20315;DHT22;10315;50.958;13.080;2022-10-16T17:12:26;16.00;99.90
20315;DHT22;10315;50.958;13.080;2022-10-16T17:22:30;16.10;99.90
20315;DHT22;10315;50.958;13.080;2022-10-16T17:32:32;16.20;99.90
20315;DHT22;10315;50.958;13.080;2022-10-16T17:42:35;16.10;99.90
20315;DHT22;10315;50.958;13.080;2022-10-16T17:52:36;16.00;99.90
20315;DHT22;10315;50.958;13.080;2022-10-16T18:02:39;15.90;99.90
20315;DHT22;10315;50.958;13.080;2022-10-16T18:12:42;15.70;99.90
20315;DHT22;10315;50.958;13.080;2022-10-16T18:22:45;15.50;99.90
20315;DHT22;10315;50.958;13.080;2022-10-16T18:32:46;15.30;99.90
20315;DHT22;10315;50.958;13.080;2022-10-16T18:42:49;15.20;99.90
20315;DHT22;10315;50.958;13.080;2022-10-16T18:52:52;15.50;99.90
20315;DHT22;10315;50.958;13.080;2022-10-16T19:02:55;15.50;99.90
20315;DHT22;10315;50.958;13.080;2022-10-16T19:12:58;15.60;99.90
20315;DHT22;10315;50.958;13.080;2022-10-16T19:23:01;15.80;99.90
20315;DHT22;10315;50.958;13.080;2022-10-16T19:33:03;15.60;99.90
20315;DHT22;10315;50.958;13.080;2022-10-16T19:43:06;15.60;99.90
20315;DHT22;10315;50.958;13.080;2022-10-16T19:53:08;15.70;99.90
20315;DHT22;10315;50.958;13.080;2022-10-16T20:03:11;16.00;99.90
20315;DHT22;10315;50.958;13.080;2022-10-16T20:13:13;15.70;99.90
20315;DHT22;10315;50.958;13.080;2022-10-16T20:23:16;15.50;99.90
20315;DHT22;10315;50.958;13.080;2022-10-16T20:33:21;15.40;99.90
20315;DHT22;10315;50.958;13.080;2022-10-16T20:43:24;15.20;99.90
20315;DHT22;10315;50.958;13.080;2022-10-16T20:53:26;14.60;99.90
20315;DHT22;10315;50.958;13.080;2022-10-16T21:03:29;14.70;99.90
20315;DHT22;10315;50.958;13.080;2022-10-16T21:13:31;14.70;99.90
20315;DHT22;10315;50.958;13.080;2022-10-16T21:23:34;14.50;99.90
20315;DHT22;10315;50.958;13.080;2022-10-16T21:33:36;14.50;99.90
20315;DHT22;10315;50.958;13.080;2022-10-16T21:43:39;14.50;99.90
20315;DHT22;10315;50.958;13.080;2022-10-16T21:53:41;14.70;99.90
20315;DHT22;10315;50.958;13.080;2022-10-16T22:03:45;14.50;99.90
20315;DHT22;10315;50.958;13.080;2022-10-16T22:13:46;14.50;99.90
20315;DHT22;10315;50.958;13.080;2022-10-16T22:23:50;14.60;99.90
20315;DHT22;10315;50.958;13.080;2022-10-16T22:33:55;14.50;99.90
20315;DHT22;10315;50.958;13.080;2022-10-16T22:43:58;14.20;99.90
20315;DHT22;10315;50.958;13.080;2022-10-16T22:54:00;13.80;99.90
20315;DHT22;10315;50.958;13.080;2022-10-16T23:04:03;13.20;99.90
20315;DHT22;10315;50.958;13.080;2022-10-16T23:14:05;12.90;99.90
20315;DHT22;10315;50.958;13.080;2022-10-16T23:24:08;13.70;99.90
20315;DHT22;10315;50.958;13.080;2022-10-16T23:34:09;14.00;99.90
20315;DHT22;10315;50.958;13.080;2022-10-16T23:44:12;13.80;99.90
20315;DHT22;10315;50.958;13.080;2022-10-16T23:54:14;13.50;99.90
